Terminal Aerodrome Forecast
Issued by NWS Charleston, WV

Current Version | Previous Version | Text Only | Print | Product List | Glossary Off
Versions: 1 2 3 4 5 6 7 8 9 10 11 12 13 14 15 16 17 18 19 20 21 22 23 24 25

331
FTUS41 KRLX 270532
TAFPKB
TAF
KPKB 270532Z 2706/2806 01005KT 3SM -SHRA BKN005 OVC015
     FM270900 02005KT 1/2SM FG SCT001 OVC006
     FM271300 03005KT 1 1/2SM BR OVC008
     FM271330 03004KT 5SM BR BKN008
     FM271400 03004KT P6SM BKN012
     FM271600 VRB03KT P6SM SCT050
     FM272200 VRB03KT 6SM -SHRA BKN035
     FM280400 VRB03KT P6SM BKN080=

USA.gov is the U.S. government's official web portal to all federal, state and local government web resources and services.